Latest Weather Observations for Neptune Island

IDS60801

Issued at 8:31 pm CST Wednesday 19 September 2018 (issued every 10 minutes, with the page automatically refreshed every 10 minutes)

About weather observations | Map of weather stations | Latest weather observations for SA | Other Formats
Station Details ID: 018115 Name: NEPTUNE ISLAND Lat: -35.34 Lon: 136.12 Height: 32.0 m
Data from the previous 72 hours. | See also: Recent months at Neptune Island
Date/Time
CST
Temp
°C
App
Temp
°C
Dew
Point
°C
Rel
Hum
%
Delta-T
°C
Wind Press
QNH
hPa
Press
MSL
hPa
Rain since
9am
mm
Dir  Spd
km/h
Gust
km/h
Spd
kts
Gust
kts
19/08:30pm 12.7 - - - - WSW 37 44 20 24 1020.3 1020.3 0.0
19/08:00pm 12.7 - - - - W 41 54 22 29 1020.1 1020.1 0.0
19/07:30pm 12.9 - - - - WSW 43 52 23 28 1019.9 1019.9 0.0
19/07:00pm 13.0 - - - - W 41 48 22 26 1019.5 1019.5 0.0
19/06:30pm 13.0 - - - - WSW 39 46 21 25 1019.3 1019.3 0.0
19/06:00pm 12.9 - - - - WSW 41 46 22 25 1019.0 1019.0 0.0
19/05:30pm 13.2 - - - - W 46 52 25 28 1018.6 1018.5 0.0
19/05:00pm 12.7 - - - - W 44 54 24 29 1018.5 1018.4 0.0
19/04:30pm 12.6 - - - - W 41 50 22 27 1018.3 1018.2 0.0
19/04:00pm 12.2 - - - - W 46 54 25 29 1018.5 1018.4 0.0
19/03:38pm 13.0 - - - - WNW 43 61 23 33 1018.2 1018.1 0.0
19/03:30pm 13.4 - - - - WNW 35 48 19 26 1018.3 1018.2 0.0
19/03:00pm 13.5 - - - - W 44 52 24 28 1018.5 1018.4 0.0
19/02:30pm 14.5 - - - - W 41 48 22 26 1018.4 1018.3 0.0
19/02:00pm 14.5 - - - - W 39 46 21 25 1018.5 1018.4 0.0
19/01:30pm 14.7 - - - - W 37 43 20 23 1018.8 1018.8 0.0
19/01:00pm 14.7 - - - - W 35 41 19 22 1019.0 1019.0 0.0
19/12:30pm 14.2 - - - - W 37 44 20 24 1018.9 1018.9 0.0
19/12:00pm 13.7 - - - - W 37 46 20 25 1019.0 1019.0 0.0
19/11:30am 13.6 - - - - W 35 39 19 21 1019.0 1019.0 0.0
19/11:00am 13.4 - - - - W 32 37 17 20 1019.0 1019.0 0.0
19/10:30am 13.0 - - - - W 32 41 17 22 1019.0 1019.0 0.0
19/10:00am 12.1 - - - - SW 32 41 17 22 1019.1 1019.1 0.0
19/09:42am 12.3 - - - - W 39 59 21 32 1018.7 1018.7 0.0
19/09:30am 12.6 - - - - W 37 43 20 23 1018.8 1018.8 0.0
19/09:00am 12.7 - - - - W 32 41 17 22 1018.7 1018.7 0.0
19/08:30am 12.4 - - - - WSW 35 43 19 23 1018.5 1018.4 0.0
19/08:00am 12.1 - - - - WSW 41 46 22 25 1018.0 1017.9 0.0
19/07:30am 11.9 - - - - WSW 39 46 21 25 1017.6 1017.5 0.0
19/07:11am 11.5 - - - - WSW 32 50 17 27 1017.4 1017.3 0.0
19/07:00am 11.0 - - - - WSW 22 26 12 14 1017.6 1017.5 0.0
19/06:30am 10.7 - - - - SW 48 59 26 32 1017.2 1017.1 0.0
19/06:20am 11.2 - - - - WSW 43 61 23 33 1016.8 1016.7 0.0
19/06:00am 11.6 - - - - WSW 37 43 20 23 1016.8 1016.7 0.0
19/05:30am 11.4 - - - - WSW 39 44 21 24 1016.6 1016.5 0.0
19/05:00am 11.4 - - - - WSW 33 46 18 25 1016.3 1016.2 0.0
19/04:30am 11.1 - - - - W 32 41 17 22 1016.2 1016.1 0.0
19/04:00am 11.2 - - - - WSW 44 57 24 31 1015.7 1015.6 0.0
19/03:30am 11.4 - - - - WSW 39 44 21 24 1015.8 1015.7 0.0
19/03:00am 11.3 - - - - WSW 44 56 24 30 1015.8 1015.7 0.0
19/02:30am 11.6 - - - - WSW 41 50 22 27 1015.9 1015.8 0.0
19/02:00am 11.2 - - - - WSW 46 59 25 32 1016.1 1016.0 0.0
19/01:41am 11.7 - - - - WSW 35 57 19 31 1016.1 1016.0 0.0
19/01:30am 11.4 - - - - WSW 37 44 20 24 1016.5 1016.4 0.0
19/01:00am 11.0 - - - - WSW 48 59 26 32 1016.5 1016.4 0.0
19/12:30am 11.7 - - - - WSW 46 54 25 29 1016.5 1016.4 0.0
19/12:00am 11.7 - - - - WSW 44 56 24 30 1016.4 1016.3 0.0
 
Date/Time
CST
Temp
°C
App
Temp
°C
Dew
Point
°C
Rel
Hum
%
Delta-T
°C
Wind Press
QNH
hPa
Press
MSL
hPa
Rain since
9am
mm
Dir  Spd
km/h
Gust
km/h
Spd
kts
Gust
kts
18/11:30pm 11.7 - - - - WSW 44 54 24 29 1016.5 1016.4 0.0
18/11:00pm 11.8 - - - - WSW 44 56 24 30 1016.4 1016.3 0.0
18/10:30pm 11.9 - - - - WSW 44 54 24 29 1016.5 1016.4 0.0
18/10:00pm 11.5 - - - - WSW 44 54 24 29 1016.4 1016.3 0.0
18/09:30pm 11.3 - - - - WSW 50 59 27 32 1016.2 1016.1 0.0
18/09:00pm 11.7 - - - - WSW 48 59 26 32 1016.0 1015.9 0.0
18/08:30pm 11.0 - - - - WSW 57 72 31 39 1015.6 1015.5 0.0
18/08:00pm 12.1 - - - - WSW 52 67 28 36 1015.2 1015.2 0.0
18/07:30pm 11.7 - - - - W 54 65 29 35 1014.7 1014.7 0.0
18/07:00pm 11.7 - - - - WSW 52 63 28 34 1014.3 1014.3 0.0
18/06:44pm 12.0 - - - - WSW 50 63 27 34 1014.3 1014.3 0.0
18/06:30pm 11.4 - - - - W 54 76 29 41 1014.1 1014.1 0.0
18/06:22pm 11.9 - - - - W 57 76 31 41 1013.8 1013.8 0.0
18/06:00pm 12.4 - - - - W 57 69 31 37 1013.4 1013.4 0.0
18/05:30pm 12.4 - - - - W 59 72 32 39 1012.8 1012.8 0.0
18/05:00pm 12.4 - - - - W 59 72 32 39 1012.7 1012.7 0.0
18/04:30pm 12.4 - - - - W 52 67 28 36 1012.9 1012.9 0.0
18/04:00pm 11.7 - - - - W 54 74 29 40 1012.2 1012.2 0.0
18/03:51pm 11.4 - - - - WSW 54 80 29 43 1012.7 1012.7 0.0
18/03:47pm 11.8 - - - - W 46 80 25 43 1012.2 1012.2 0.0
18/03:46pm 12.4 - - - - W 44 80 24 43 1012.5 1012.5 0.0
18/03:30pm 12.7 - - - - WSW 46 59 25 32 1012.6 1012.6 0.0
18/03:00pm 12.9 - - - - W 48 61 26 33 1012.1 1012.1 0.0
18/02:30pm 13.3 - - - - W 54 63 29 34 1012.1 1012.1 0.0
18/02:00pm 13.4 - - - - W 56 65 30 35 1011.8 1011.8 0.0
18/01:30pm 13.8 - - - - W 57 69 31 37 1011.7 1011.7 0.0
18/01:00pm 13.8 - - - - W 54 65 29 35 1011.8 1011.8 0.0
18/12:30pm 13.7 - - - - W 57 70 31 38 1011.5 1011.5 0.0
18/12:00pm 13.7 - - - - W 59 70 32 38 1011.7 1011.7 0.0
18/11:30am 13.5 - - - - W 59 67 32 36 1011.7 1011.7 0.0
18/11:00am 13.7 - - - - W 52 63 28 34 1011.9 1011.9 0.0
18/10:30am 13.6 - - - - W 54 67 29 36 1012.0 1012.0 0.0
18/10:00am 13.4 - - - - W 52 61 28 33 1011.7 1011.7 0.0
18/09:30am 13.5 - - - - W 48 57 26 31 1011.7 1011.7 0.0
18/09:00am 12.7 - - - - W 44 54 24 29 1011.5 1011.5 -
18/08:30am 12.3 - - - - WNW 54 63 29 34 1011.4 1011.4 -
18/08:00am 11.9 - - - - W 50 59 27 32 1011.2 1011.2 -
18/07:46am 13.0 - - - - WNW 48 65 26 35 1011.0 1011.0 -
18/07:30am 12.7 - - - - WNW 39 46 21 25 1011.2 1011.2 -
18/07:00am 12.2 - - - - W 43 50 23 27 1011.0 1011.0 -
18/06:37am 12.6 - - - - WNW 46 65 25 35 1010.6 1010.6 -
18/06:30am 13.0 - - - - WNW 44 54 24 29 1010.6 1010.6 -
18/06:00am 13.1 - - - - WNW 44 52 24 28 1010.5 1010.5 -
18/05:30am 13.2 - - - - WNW 37 46 20 25 1010.6 1010.6 -
18/05:00am 12.9 - - - - WNW 39 46 21 25 1010.6 1010.6 -
18/04:30am 12.7 - - - - WNW 39 46 21 25 1010.3 1010.3 -
18/04:00am 12.6 - - - - W 39 50 21 27 1010.1 1010.1 -
18/03:30am 12.3 - - - - W 39 48 21 26 1010.1 1010.1 -
18/03:00am 12.5 - - - - W 43 50 23 27 1010.0 1010.0 -
18/02:30am 12.3 - - - - W 43 50 23 27 1009.8 1009.8 -
18/02:00am 13.2 - - - - WSW 41 52 22 28 1009.6 1009.6 -
18/01:30am 13.1 - - - - WSW 39 44 21 24 1009.6 1009.6 -
18/01:00am 13.2 - - - - WSW 46 56 25 30 1009.5 1009.5 -
18/12:30am 13.3 - - - - WSW 50 57 27 31 1009.2 1009.2 -
18/12:00am 14.0 - - - - WSW 39 46 21 25 1009.3 1009.3 -
 
Date/Time
CST
Temp
°C
App
Temp
°C
Dew
Point
°C
Rel
Hum
%
Delta-T
°C
Wind Press
QNH
hPa
Press
MSL
hPa
Rain since
9am
mm
Dir  Spd
km/h
Gust
km/h
Spd
kts
Gust
kts
17/11:30pm 14.3 - - - - WSW 43 50 23 27 1009.2 1009.2 -
17/11:00pm 14.9 - - - - W 44 52 24 28 1008.5 1008.5 -
17/10:30pm 15.2 - - - - W 44 52 24 28 1008.3 1008.3 -
17/10:00pm 15.5 - - - - W 39 54 21 29 1008.2 1008.2 -
17/09:30pm 16.0 - - - - WNW 32 39 17 21 1008.4 1008.4 -
17/09:00pm 16.8 - - - - NW 43 52 23 28 1008.2 1008.2 -
17/08:30pm 17.7 - - - - NNW 35 46 19 25 1008.1 1008.1 -
17/08:00pm 16.8 - - - - N 28 35 15 19 1008.1 1008.1 -
17/07:30pm 16.6 - - - - N 26 32 14 17 1008.3 1008.3 -
17/07:00pm 16.8 - - - - N 24 28 13 15 1008.4 1008.4 -
17/06:30pm 16.7 - - - - N 22 28 12 15 1008.3 1008.3 -
17/06:00pm 15.8 - - - - NNE 20 24 11 13 1008.4 1008.4 -
17/05:30pm 15.7 - - - - NNE 26 28 14 15 1008.5 1008.5 -
17/05:00pm 16.0 - - - - NNE 26 30 14 16 1008.4 1008.4 -
17/04:30pm 16.4 - - - - NE 32 37 17 20 1008.2 1008.2 -
17/04:00pm 16.4 - - - - NE 35 41 19 22 1008.5 1008.5 -
17/03:30pm 16.4 - - - - NE 35 39 19 21 1008.9 1008.9 -
17/03:00pm 17.3 - - - - NE 33 39 18 21 1009.5 1009.5 -
17/02:00pm 18.6 - - - - N 33 39 18 21 1010.4 1010.4 -
17/01:00pm 17.6 - - - - NNE 35 43 19 23 1011.7 1011.7 0.0
17/12:30pm 17.6 - - - - NNE 39 46 21 25 1012.5 1012.5 0.0
17/12:00pm 16.9 - - - - N 43 48 23 26 1013.0 1013.0 0.0
17/11:30am 16.9 - - - - N 41 48 22 26 1013.6 1013.6 0.0
17/11:00am 16.5 - - - - N 43 48 23 26 1014.1 1014.1 0.0
17/10:30am 16.2 - - - - N 43 50 23 27 1014.5 1014.5 0.0
17/10:00am 15.8 - - - - N 43 48 23 26 1015.0 1015.0 0.0
17/09:30am 15.0 - - - - N 43 50 23 27 1015.2 1015.2 0.0
17/09:00am 14.6 - - - - N 44 54 24 29 1015.7 1015.6 0.0
17/08:30am 14.2 - - - - N 41 50 22 27 1016.1 1016.0 0.0
17/08:00am 13.7 - - - - N 41 50 22 27 1016.2 1016.1 0.0
17/07:30am 13.4 - - - - N 41 48 22 26 1016.2 1016.1 0.0
17/07:00am 12.8 - - - - NNE 41 44 22 24 1016.2 1016.1 0.0
17/06:30am 12.8 - - - - NNE 43 48 23 26 1016.3 1016.2 0.0
17/06:00am 12.7 - - - - NNE 44 50 24 27 1016.4 1016.3 0.0
17/05:30am 12.8 - - - - NNE 46 54 25 29 1016.3 1016.2 0.0
17/05:00am 12.8 - - - - NNE 46 52 25 28 1016.4 1016.3 0.0
17/04:30am 12.9 - - - - NNE 46 54 25 29 1016.5 1016.4 0.0
17/04:00am 12.7 - - - - NNE 44 52 24 28 1016.5 1016.4 0.0
17/03:30am 12.5 - - - - NNE 43 50 23 27 1016.8 1016.7 0.0
17/03:00am 12.4 - - - - NNE 37 44 20 24 1017.4 1017.3 0.0
17/02:30am 12.0 - - - - NNE 37 43 20 23 1017.8 1017.7 0.0
17/02:00am 12.1 - - - - NNE 37 41 20 22 1018.4 1018.3 0.0
17/01:30am 12.1 - - - - NNE 32 37 17 20 1019.0 1019.0 0.0
17/01:00am 12.1 - - - - N 32 37 17 20 1019.4 1019.4 0.0
17/12:30am 12.0 - - - - N 28 33 15 18 1019.9 1019.9 0.0
17/12:00am 12.1 - - - - N 28 32 15 17 1020.3 1020.3 0.0
 
Date/Time
CST
Temp
°C
App
Temp
°C
Dew
Point
°C
Rel
Hum
%
Delta-T
°C
Wind Press
QNH
hPa
Press
MSL
hPa
Rain since
9am
mm
Dir  Spd
km/h
Gust
km/h
Spd
kts
Gust
kts
16/11:30pm 12.2 - - - - N 20 24 11 13 1021.2 1021.2 0.0
16/11:00pm 12.4 - - - - NNW 20 24 11 13 1021.5 1021.5 0.0
16/10:30pm 12.6 - - - - NNW 22 28 12 15 1021.7 1021.7 0.0
16/10:00pm 12.5 - - - - NNW 20 26 11 14 1022.0 1022.0 0.0
16/09:30pm 12.7 - - - - NW 24 30 13 16 1022.4 1022.4 0.0
16/09:00pm 12.6 - - - - NW 24 32 13 17 1022.6 1022.6 0.0

Other Formats:

Comma delimited format used in spreadsheet applications
http://www.bom.gov.au/fwo/IDS60801/IDS60801.94804.axf

JavaScript Object Notation format (JSON) in row-major order
http://www.bom.gov.au/fwo/IDS60801/IDS60801.94804.json